Strona główna
METAR-TAF:

METAR-TAF

Lotnisko :

Port lotniczy Córdoba

Córdoba, Argentyna

Szerokość geograficzna: 31-19S, Długość geograficzna: 064-13W, wysokość: 484 m

Aktualna obserwacja pogody

Raport powstał 39 minut temu, godzina 14:00 UTC
Wiatr 10 kt od wschód
Temperatura 16°C
Wilgotność 72%
Ciśnienie 1019 hPa
Widzialność 10 km lub więcej
Mało chmury na wysokości 3000 ft
Przerywane chmury na wysokości 10000 ft

METAR: SACO 201400Z 09010KT 9999 FEW030 BKN100 16/11 Q1019 NOSIG

czas: 11:39 (14:39 UTC)

Prognoza

Raport powstał 3 godziny i 39 minut temu, godzina 11:00 UTC
Prognoza ważna od 20 godzina 12 UTC do 21 godzina 12 UTC
Wiatr 5 kt od południowy wschód
Widzialność 10 km lub więcej
Przerywane chmury na wysokości 4000 ft
Przejściowo
od 20 godzina 14 UTC do 20 godzina 18 UTC
Wiatr 5 kt od wschód
Widzialność: 5000 m
Przerywane chmury na wysokości 3000 ft
Mało chmury na wysokości 4000 ft, Cumulonimbus.

TAF: SACO 201100Z 2012/2112 13005KT 9999 BKN040 TX22/2018Z TN10/2010Z TEMPO 2014/2018 09005KT 5000 TSSH BKN030 FEW040CB

Obserwacja i prognoza pogody dla ponad 4000 lotnisk (raport METAR i TAF).

Dostępne stacje oznaczono żółtymi i czerwonymi punktami na mapie.

Najedź kursorem aby zobaczyć nazwę stacji.

Kliknij aby zobaczyć obserwacje i prognozy pogody.

Aby zmienić mapę: kliknij na zielony przycisk z czarnym krzyżykiem, aby powiększyć; na zielony przycisk z myślnikiem, aby pomniejszyć; na zielone strzałki, aby przejść do map sąsiednich.


METAR-TAF: